Time;durP1;ratioP1;P1;durP2;ratioP2;P2;SDS_P1;SDS_P2;PMS_P1;PMS_P2;Temp;Humidity;BMP_temperature;BMP_pressure;BME280_temperature;BME280_humidity;BME280_pressure;Samples;Min_cycle;Max_cycle;Signal;HPM_P1;HPM_P2
2023/03/05 00:01:23;;;;;;;11.77;2.47;;;;;;;3.36;100.00;101745.34;4988329;28;20296;-68
2023/03/05 00:03:51;;;;;;;13.43;2.10;;;;;;;3.36;100.00;101737.75;4982900;28;20313;-69
2023/03/05 00:06:20;;;;;;;11.77;2.00;;;;;;;3.32;100.00;101735.78;4982187;28;20188;-68
2023/03/05 00:08:47;;;;;;;15.93;2.20;;;;;;;3.32;100.00;101738.31;4982005;28;20214;-67
2023/03/05 00:11:13;;;;;;;13.10;2.67;;;;;;;3.33;100.00;101729.09;4984663;28;20561;-69
2023/03/05 00:13:39;;;;;;;8.17;1.73;;;;;;;3.32;100.00;101727.34;4985635;28;20219;-68
2023/03/05 00:16:06;;;;;;;10.73;1.93;;;;;;;3.32;100.00;101730.75;4981689;28;20192;-68
2023/03/05 00:18:32;;;;;;;8.07;1.63;;;;;;;3.33;100.00;101734.16;4985310;28;20200;-70
2023/03/05 00:20:58;;;;;;;4.77;1.47;;;;;;;3.32;100.00;101728.22;4985520;28;20846;-69
2023/03/05 00:23:23;;;;;;;9.73;1.93;;;;;;;3.32;100.00;101725.69;4969422;28;20308;-68
2023/03/05 00:25:49;;;;;;;6.47;1.60;;;;;;;3.32;100.00;101720.63;4985548;28;20579;-68
2023/03/05 00:28:14;;;;;;;9.33;1.73;;;;;;;3.32;100.00;101724.81;4983186;28;20204;-69
2023/03/05 00:30:40;;;;;;;7.93;1.60;;;;;;;3.31;100.00;101720.56;4984301;28;20246;-69
2023/03/05 00:33:07;;;;;;;9.03;2.07;;;;;;;3.32;100.00;101724.81;4986619;28;20242;-69
2023/03/05 00:35:39;;;;;;;8.87;1.77;;;;;;;3.30;100.00;101716.25;4984112;28;20202;-68
2023/03/05 00:38:04;;;;;;;8.83;2.13;;;;;;;3.32;100.00;101710.50;4986956;28;20188;-69
2023/03/05 00:40:29;;;;;;;9.20;1.77;;;;;;;3.33;100.00;101718.97;4984109;28;20192;-69
2023/03/05 00:42:55;;;;;;;8.47;1.70;;;;;;;3.32;100.00;101712.16;4969558;28;20223;-68
2023/03/05 00:45:20;;;;;;;9.53;1.53;;;;;;;3.33;100.00;101708.84;4981368;28;20200;-69
2023/03/05 00:47:46;;;;;;;8.73;1.40;;;;;;;3.34;100.00;101710.59;4987082;28;20199;-68
2023/03/05 00:50:11;;;;;;;6.63;1.83;;;;;;;3.35;100.00;101708.16;4986708;28;20231;-68
2023/03/05 00:52:37;;;;;;;7.40;1.40;;;;;;;3.34;100.00;101701.34;4984370;28;20705;-68
2023/03/05 00:55:03;;;;;;;7.90;1.60;;;;;;;3.31;100.00;101696.09;4980996;28;20234;-69
2023/03/05 00:57:29;;;;;;;6.47;1.80;;;;;;;3.33;100.00;101696.19;4983542;28;20811;-69
2023/03/05 00:59:54;;;;;;;7.03;1.23;;;;;;;3.33;100.00;101683.53;4982567;28;20747;-68
2023/03/05 01:02:20;;;;;;;6.77;1.80;;;;;;;3.34;100.00;101682.75;4974971;28;20766;-68
2023/03/05 01:04:46;;;;;;;6.60;1.77;;;;;;;3.33;100.00;101681.91;4980216;28;20207;-68
2023/03/05 01:07:12;;;;;;;13.00;1.87;;;;;;;3.31;100.00;101680.91;4982600;28;20187;-69
2023/03/05 01:09:37;;;;;;;6.37;1.30;;;;;;;3.28;100.00;101678.22;4978336;28;20338;-68
2023/03/05 01:12:03;;;;;;;7.13;1.60;;;;;;;3.28;100.00;101698.47;4980466;28;20677;-69
2023/03/05 01:14:28;;;;;;;8.47;2.10;;;;;;;3.28;100.00;101700.09;4983318;28;20208;-68
2023/03/05 01:16:54;;;;;;;7.47;1.57;;;;;;;3.24;100.00;101695.63;4986504;28;20268;-69
2023/03/05 01:19:19;;;;;;;6.57;1.60;;;;;;;3.12;100.00;101687.31;4984766;28;20192;-68
2023/03/05 01:21:44;;;;;;;8.23;1.40;;;;;;;3.09;100.00;101682.91;4980409;28;20203;-69
2023/03/05 01:24:10;;;;;;;9.00;1.73;;;;;;;3.04;100.00;101676.69;4986355;28;20226;-68
2023/03/05 01:26:35;;;;;;;7.00;1.37;;;;;;;3.01;100.00;101680.69;4986618;28;20195;-68
2023/03/05 01:29:01;;;;;;;9.50;2.57;;;;;;;2.96;100.00;101667.75;4986040;28;20202;-69
2023/03/05 01:31:27;;;;;;;7.10;1.77;;;;;;;2.99;100.00;101664.53;4972764;28;20204;-69
2023/03/05 01:33:53;;;;;;;9.03;1.70;;;;;;;2.96;100.00;101665.22;4983972;28;20216;-69
2023/03/05 01:36:22;;;;;;;9.77;1.93;;;;;;;2.97;100.00;101669.50;4979479;28;20573;-68
2023/03/05 01:38:47;;;;;;;6.77;1.73;;;;;;;2.96;100.00;101665.22;4986971;28;20200;-70
2023/03/05 01:41:14;;;;;;;12.77;1.70;;;;;;;2.96;100.00;101664.34;4988648;28;20262;-68
2023/03/05 01:43:41;;;;;;;7.37;1.40;;;;;;;2.94;100.00;101656.66;4985090;28;20235;-68
2023/03/05 01:46:25;;;;;;;6.63;1.53;;;;;;;2.94;100.00;101658.34;4982306;28;20192;-68
2023/03/05 01:48:59;;;;;;;9.17;1.70;;;;;;;2.95;100.00;101655.03;4986996;28;20192;-68
2023/03/05 01:51:30;;;;;;;10.60;1.60;;;;;;;2.93;100.00;101659.09;4979754;28;20282;-69
2023/03/05 01:53:57;;;;;;;6.97;1.70;;;;;;;2.89;100.00;101650.44;4984280;28;20226;-67
2023/03/05 01:56:23;;;;;;;8.13;2.10;;;;;;;2.87;100.00;101648.59;4988480;28;20184;-68
2023/03/05 01:58:50;;;;;;;7.67;1.60;;;;;;;2.81;100.00;101649.06;4984823;28;20200;-70
2023/03/05 02:01:16;;;;;;;8.07;1.63;;;;;;;2.83;100.00;101639.06;4982951;28;20203;-69
2023/03/05 02:03:42;;;;;;;8.93;2.30;;;;;;;2.80;100.00;101643.97;4982699;28;20226;-69
2023/03/05 02:06:08;;;;;;;9.47;1.83;;;;;;;2.83;100.00;101641.59;4983347;28;20661;-68
2023/03/05 02:08:34;;;;;;;10.50;2.73;;;;;;;2.81;100.00;101640.63;4985449;28;20188;-67
2023/03/05 02:11:00;;;;;;;14.07;2.10;;;;;;;2.81;100.00;101633.91;4985677;28;20211;-68
2023/03/05 02:13:31;;;;;;;9.27;2.30;;;;;;;2.79;100.00;101627.91;4984866;28;20219;-69
2023/03/05 02:15:58;;;;;;;9.70;1.93;;;;;;;2.76;100.00;101625.16;4983936;28;20191;-69
2023/03/05 02:18:24;;;;;;;8.53;2.00;;;;;;;2.78;100.00;101623.63;4979529;28;20199;-67
2023/03/05 02:20:55;;;;;;;8.17;2.00;;;;;;;2.80;100.00;101624.59;4980261;28;20571;-69
2023/03/05 02:23:23;;;;;;;9.17;3.33;;;;;;;2.81;100.00;101620.41;4984304;28;20200;-69
2023/03/05 02:25:49;;;;;;;10.93;3.23;;;;;;;2.82;100.00;101622.16;4977026;28;20191;-69
2023/03/05 02:28:37;;;;;;;10.60;3.50;;;;;;;2.82;100.00;101620.50;4980474;28;20195;-69
2023/03/05 02:31:16;;;;;;;7.87;3.53;;;;;;;2.82;100.00;101623.03;4980582;28;20219;-67
2023/03/05 02:33:41;;;;;;;10.73;3.47;;;;;;;2.83;100.00;101617.19;4982874;28;20223;-69
2023/03/05 02:36:07;;;;;;;9.73;4.60;;;;;;;2.81;100.00;101605.25;4983610;28;20745;-70
2023/03/05 02:38:33;;;;;;;9.10;3.77;;;;;;;2.75;100.00;101605.72;4982987;28;20192;-69
2023/03/05 02:40:59;;;;;;;12.53;3.83;;;;;;;2.77;100.00;101605.81;4986988;28;20651;-70
2023/03/05 02:43:25;;;;;;;11.20;4.03;;;;;;;2.75;100.00;101603.19;4984669;28;20223;-70
2023/03/05 02:45:50;;;;;;;12.33;4.13;;;;;;;2.74;100.00;101603.09;4984958;28;20192;-71
2023/03/05 02:48:16;;;;;;;8.80;3.73;;;;;;;2.68;100.00;101602.72;4988503;28;20187;-71
2023/03/05 02:50:42;;;;;;;6.60;3.67;;;;;;;2.59;100.00;101597.97;4986734;28;20211;-68
2023/03/05 02:53:08;;;;;;;8.30;3.87;;;;;;;2.60;100.00;101594.66;4987836;28;20627;-70
2023/03/05 02:55:34;;;;;;;12.03;4.17;;;;;;;2.58;100.00;101587.78;4989529;28;20279;-69
2023/03/05 02:57:59;;;;;;;7.70;4.00;;;;;;;2.58;100.00;101592.81;4986807;28;20265;-70
2023/03/05 03:00:26;;;;;;;11.10;4.60;;;;;;;2.57;100.00;101586.88;4984805;28;20267;-67
2023/03/05 03:02:52;;;;;;;9.03;4.27;;;;;;;2.56;100.00;101580.09;4969776;28;20694;-68
2023/03/05 03:05:17;;;;;;;7.43;4.07;;;;;;;2.57;100.00;101575.91;4984549;28;20265;-70
2023/03/05 03:07:42;;;;;;;9.60;3.97;;;;;;;2.56;100.00;101571.63;4990093;28;20199;-69
2023/03/05 03:10:09;;;;;;;11.37;4.33;;;;;;;2.58;100.00;101567.56;4986560;28;20270;-70
2023/03/05 03:12:39;;;;;;;13.60;4.50;;;;;;;2.56;100.00;101575.03;4984662;28;20235;-70
2023/03/05 03:15:06;;;;;;;13.10;4.47;;;;;;;2.55;100.00;101570.75;4984876;28;20342;-69
2023/03/05 03:17:34;;;;;;;10.83;4.03;;;;;;;2.54;100.00;101570.66;4983382;28;20194;-70
2023/03/05 03:20:01;;;;;;;11.57;4.73;;;;;;;2.55;100.00;101573.28;4985331;28;20195;-69
2023/03/05 03:22:28;;;;;;;12.17;4.80;;;;;;;2.56;100.00;101567.44;4988317;28;20220;-69
2023/03/05 03:24:55;;;;;;;14.37;5.90;;;;;;;2.52;100.00;101569.72;4988093;28;20896;-69
2023/03/05 03:27:20;;;;;;;13.27;5.87;;;;;;;2.49;100.00;101560.25;4981047;28;20797;-70
2023/03/05 03:29:46;;;;;;;16.50;7.57;;;;;;;2.49;100.00;101560.25;4985100;28;20215;-69
2023/03/05 03:32:11;;;;;;;15.20;6.93;;;;;;;2.50;100.00;101556.09;4984833;28;20191;-69
2023/03/05 03:34:37;;;;;;;15.87;6.97;;;;;;;2.51;100.00;101555.28;4990706;28;20301;-70
2023/03/05 03:37:02;;;;;;;15.77;7.00;;;;;;;2.49;100.00;101539.19;4985566;28;20556;-69
2023/03/05 03:39:28;;;;;;;19.43;7.23;;;;;;;2.47;100.00;101536.56;4989112;28;20524;-69
2023/03/05 03:41:53;;;;;;;13.30;6.20;;;;;;;2.49;100.00;101532.47;4983966;28;20222;-70
2023/03/05 03:44:20;;;;;;;13.13;5.80;;;;;;;2.49;100.00;101534.97;4983709;28;20216;-70
2023/03/05 03:46:47;;;;;;;13.63;6.57;;;;;;;2.48;100.00;101522.28;4987555;28;20845;-70
2023/03/05 03:49:18;;;;;;;11.27;5.07;;;;;;;2.47;100.00;101523.91;4985583;28;20274;-69
2023/03/05 03:51:45;;;;;;;14.03;4.33;;;;;;;2.48;100.00;101527.34;4985488;28;20200;-69
2023/03/05 03:54:12;;;;;;;13.53;5.57;;;;;;;2.46;100.00;101524.72;4978830;28;20786;-69
2023/03/05 03:56:38;;;;;;;14.07;3.70;;;;;;;2.46;100.00;101516.25;4986300;28;20199;-70
2023/03/05 03:59:03;;;;;;;11.70;3.70;;;;;;;2.48;100.00;101525.66;4980331;28;20203;-70
2023/03/05 04:01:29;;;;;;;9.53;3.10;;;;;;;2.48;100.00;101519.75;4986491;28;20287;-69
2023/03/05 04:03:54;;;;;;;11.90;3.00;;;;;;;2.48;100.00;101520.59;4984281;28;20311;-70
2023/03/05 04:06:20;;;;;;;8.17;2.73;;;;;;;2.48;100.00;101514.69;4982587;28;20227;-69
2023/03/05 04:08:45;;;;;;;7.30;2.70;;;;;;;2.49;100.00;101518.97;4986961;28;20187;-70
2023/03/05 04:11:11;;;;;;;8.13;2.70;;;;;;;2.50;100.00;101513.13;4985623;28;20216;-70
2023/03/05 04:13:36;;;;;;;12.17;2.93;;;;;;;2.48;100.00;101513.03;4987152;28;20215;-71
2023/03/05 04:16:02;;;;;;;9.10;2.63;;;;;;;2.47;100.00;101515.44;4987280;28;20243;-71
2023/03/05 04:18:27;;;;;;;7.97;3.03;;;;;;;2.48;100.00;101519.75;4984741;28;20533;-68
2023/03/05 04:20:53;;;;;;;7.57;2.70;;;;;;;2.48;100.00;101518.06;4985270;28;20670;-70
2023/03/05 04:23:18;;;;;;;8.30;2.30;;;;;;;2.48;100.00;101522.28;4983546;28;20576;-69
2023/03/05 04:25:43;;;;;;;12.77;3.03;;;;;;;2.46;100.00;101512.06;4988979;28;20206;-70
2023/03/05 04:28:09;;;;;;;7.77;2.23;;;;;;;2.48;100.00;101507.13;4988625;28;20203;-69
2023/03/05 04:30:35;;;;;;;7.17;2.53;;;;;;;2.46;100.00;101506.13;4987027;28;20222;-70
2023/03/05 04:33:01;;;;;;;10.57;2.23;;;;;;;2.45;100.00;101509.44;4987279;28;20224;-69
2023/03/05 04:35:26;;;;;;;8.37;2.77;;;;;;;2.42;100.00;101497.50;4984379;28;20370;-69
2023/03/05 04:37:52;;;;;;;6.73;2.37;;;;;;;2.42;100.00;101496.63;4983649;28;20200;-70
2023/03/05 04:40:18;;;;;;;10.07;2.77;;;;;;;2.42;100.00;101499.13;4982065;28;20235;-67
2023/03/05 04:42:43;;;;;;;8.13;2.80;;;;;;;2.43;100.00;101494.19;4984603;28;20565;-69
2023/03/05 04:45:09;;;;;;;5.53;2.23;;;;;;;2.41;100.00;101492.34;4983127;28;20200;-68
2023/03/05 04:47:35;;;;;;;7.70;2.03;;;;;;;2.43;100.00;101495.84;4983742;28;20203;-67
2023/03/05 04:50:03;;;;;;;7.50;2.30;;;;;;;2.39;100.00;101494.78;4982624;28;20306;-69
2023/03/05 04:52:29;;;;;;;7.53;1.97;;;;;;;2.37;100.00;101483.72;4984114;28;20220;-70
2023/03/05 04:54:54;;;;;;;6.47;1.70;;;;;;;2.36;100.00;101484.50;4985942;28;20756;-71
2023/03/05 04:57:19;;;;;;;6.33;2.03;;;;;;;2.34;100.00;101486.03;4983680;28;20565;-68
2023/03/05 04:59:45;;;;;;;8.50;2.37;;;;;;;2.37;100.00;101485.34;4986663;28;20207;-71
2023/03/05 05:02:11;;;;;;;8.93;2.13;;;;;;;2.34;100.00;101475.06;4985579;28;20192;-70
2023/03/05 05:04:36;;;;;;;9.40;2.20;;;;;;;2.34;100.00;101478.47;4980777;28;20251;-69
2023/03/05 05:07:03;;;;;;;8.00;2.43;;;;;;;2.32;100.00;101477.50;4982139;28;20203;-68
2023/03/05 05:09:29;;;;;;;7.83;2.00;;;;;;;2.34;100.00;101475.94;4985162;28;20254;-70
2023/03/05 05:11:54;;;;;;;14.70;2.50;;;;;;;2.33;100.00;101474.19;4987495;28;20195;-70
2023/03/05 05:14:20;;;;;;;8.53;2.13;;;;;;;2.34;100.00;101470.03;4985445;28;20223;-69
2023/03/05 05:16:45;;;;;;;7.43;2.30;;;;;;;2.35;100.00;101472.63;4978962;28;20208;-67
2023/03/05 05:19:11;;;;;;;11.57;2.60;;;;;;;2.37;100.00;101480.28;4982285;28;20188;-70
2023/03/05 05:21:37;;;;;;;7.60;2.10;;;;;;;2.34;100.00;101475.06;4986326;28;20195;-68
2023/03/05 05:24:02;;;;;;;4.07;1.93;;;;;;;2.34;100.00;101468.34;4985983;28;20222;-70
2023/03/05 05:26:28;;;;;;;8.70;1.83;;;;;;;2.34;100.00;101467.50;4983539;28;20195;-70
2023/03/05 05:28:53;;;;;;;5.37;1.60;;;;;;;2.33;100.00;101465.72;4985584;28;20254;-70
2023/03/05 05:31:19;;;;;;;9.50;1.93;;;;;;;2.31;100.00;101469.81;4982639;28;20246;-69
2023/03/05 05:33:45;;;;;;;4.77;2.20;;;;;;;2.30;100.00;101463.88;4985424;28;20219;-70
2023/03/05 05:36:15;;;;;;;6.40;1.93;;;;;;;2.31;100.00;101459.72;4983233;28;20215;-70
2023/03/05 05:38:41;;;;;;;6.03;2.30;;;;;;;2.29;100.00;101461.28;4982585;28;20199;-70
2023/03/05 05:41:12;;;;;;;10.73;2.43;;;;;;;2.26;100.00;101461.94;4983263;28;20250;-70
2023/03/05 05:43:37;;;;;;;9.47;2.33;;;;;;;2.29;100.00;101459.63;4987044;28;20224;-69
2023/03/05 05:46:06;;;;;;;8.50;2.67;;;;;;;2.30;100.00;101460.50;4982969;28;20203;-70
2023/03/05 05:48:33;;;;;;;9.33;2.70;;;;;;;2.30;100.00;101463.03;4986720;28;20894;-70
2023/03/05 05:51:04;;;;;;;5.13;2.27;;;;;;;2.29;100.00;101448.66;4983228;28;20553;-71
2023/03/05 05:53:29;;;;;;;7.73;1.70;;;;;;;2.24;100.00;101455.94;4985635;28;20204;-68
2023/03/05 05:55:55;;;;;;;6.47;1.90;;;;;;;2.25;100.00;101457.69;4982068;28;20206;-69
2023/03/05 05:58:20;;;;;;;7.43;2.10;;;;;;;2.24;100.00;101455.06;4984125;28;20278;-71
2023/03/05 06:00:46;;;;;;;7.83;1.60;;;;;;;2.25;100.00;101451.78;4983462;28;20204;-67
2023/03/05 06:03:11;;;;;;;6.63;1.77;;;;;;;2.28;100.00;101451.94;4984849;28;20207;-71
2023/03/05 06:05:37;;;;;;;7.63;1.50;;;;;;;2.27;100.00;101458.66;4981631;28;20238;-69
2023/03/05 06:08:02;;;;;;;7.00;1.87;;;;;;;2.29;100.00;101453.72;4983530;28;20195;-66
2023/03/05 06:10:28;;;;;;;5.80;1.63;;;;;;;2.27;100.00;101456.13;4983329;28;20216;-70
2023/03/05 06:12:54;;;;;;;7.00;1.70;;;;;;;2.29;100.00;101454.56;4984119;28;20227;-70
2023/03/05 06:15:19;;;;;;;4.53;1.97;;;;;;;2.30;100.00;101456.31;4968886;28;20198;-69
2023/03/05 06:17:46;;;;;;;4.47;2.30;;;;;;;2.32;100.00;101453.88;4984359;28;20573;-70
2023/03/05 06:20:12;;;;;;;10.80;2.43;;;;;;;2.30;100.00;101456.31;4985528;28;20207;-70
2023/03/05 06:22:38;;;;;;;9.30;2.00;;;;;;;2.33;100.00;101453.09;4981959;28;20200;-69
2023/03/05 06:25:06;;;;;;;4.37;2.07;;;;;;;2.34;100.00;101450.66;4983233;28;20232;-70
2023/03/05 06:27:32;;;;;;;7.77;2.30;;;;;;;2.35;100.00;101454.94;4982735;28;20188;-70
2023/03/05 06:29:58;;;;;;;4.07;1.90;;;;;;;2.38;100.00;101455.13;4985196;28;20315;-70
2023/03/05 06:32:23;;;;;;;9.07;1.50;;;;;;;2.39;100.00;101448.44;4984934;28;20282;-70
2023/03/05 06:34:49;;;;;;;8.10;1.73;;;;;;;2.40;100.00;101448.53;4985272;28;20196;-69
2023/03/05 06:37:14;;;;;;;7.30;1.50;;;;;;;2.40;100.00;101453.59;4981791;28;20211;-70
2023/03/05 06:39:40;;;;;;;4.93;2.00;;;;;;;2.40;100.00;101447.66;4985547;28;20582;-69
2023/03/05 06:42:06;;;;;;;8.77;1.70;;;;;;;2.40;100.00;101448.53;4982543;28;20214;-69
2023/03/05 06:44:31;;;;;;;3.93;1.57;;;;;;;2.40;100.00;101452.72;4985065;28;20219;-69
2023/03/05 06:46:57;;;;;;;6.83;1.40;;;;;;;2.40;100.00;101447.66;4982474;28;20199;-70
2023/03/05 06:49:22;;;;;;;5.00;1.50;;;;;;;2.41;100.00;101457.84;4985414;28;20251;-70
2023/03/05 06:51:47;;;;;;;4.50;1.50;;;;;;;2.41;100.00;101439.28;4984827;28;20231;-69
2023/03/05 06:54:15;;;;;;;11.50;1.60;;;;;;;2.47;100.00;101450.66;4985711;28;20226;-69
2023/03/05 06:56:43;;;;;;;5.50;1.90;;;;;;;2.52;100.00;101444.22;4984627;28;20204;-70
2023/03/05 06:59:10;;;;;;;5.40;1.20;;;;;;;2.54;100.00;101447.72;4982608;28;20196;-70
2023/03/05 07:01:36;;;;;;;6.87;0.83;;;;;;;2.57;100.00;101447.88;4981687;28;20561;-69
2023/03/05 07:04:02;;;;;;;3.80;1.10;;;;;;;2.50;100.00;101443.25;4986994;28;20220;-68
2023/03/05 07:06:30;;;;;;;6.13;1.10;;;;;;;2.55;100.00;101446.94;4980849;28;20196;-70
2023/03/05 07:08:57;;;;;;;4.77;1.83;;;;;;;2.55;100.00;101443.53;4984835;28;20202;-70
2023/03/05 07:11:24;;;;;;;2.83;1.23;;;;;;;2.59;100.00;101447.97;4977237;28;20958;-69
2023/03/05 07:13:50;;;;;;;6.03;1.70;;;;;;;2.59;100.00;101443.81;4983509;28;20308;-70
2023/03/05 07:16:21;;;;;;;4.93;1.50;;;;;;;2.61;100.00;101448.94;4981989;28;20809;-70
2023/03/05 07:18:48;;;;;;;6.33;2.43;;;;;;;2.57;100.00;101452.94;4982394;28;20196;-68
2023/03/05 07:21:17;;;;;;;5.67;2.30;;;;;;;2.58;100.00;101454.69;4983661;28;20192;-70
2023/03/05 07:23:43;;;;;;;6.67;2.27;;;;;;;2.59;100.00;101460.63;4983355;28;20234;-68
2023/03/05 07:26:09;;;;;;;8.97;2.70;;;;;;;2.62;100.00;101450.72;4983063;28;20192;-69
2023/03/05 07:28:35;;;;;;;6.17;3.23;;;;;;;2.69;100.00;101456.22;4981293;28;20258;-69
2023/03/05 07:31:05;;;;;;;8.07;2.90;;;;;;;2.74;100.00;101453.94;4986854;28;20219;-68
2023/03/05 07:33:31;;;;;;;7.10;3.70;;;;;;;2.76;100.00;101448.19;4982882;28;20303;-70
2023/03/05 07:35:57;;;;;;;6.77;3.40;;;;;;;2.79;100.00;101448.41;4989190;28;20211;-70
2023/03/05 07:38:22;;;;;;;8.33;4.03;;;;;;;2.82;100.00;101438.47;4983524;28;20219;-70
2023/03/05 07:40:48;;;;;;;8.57;3.83;;;;;;;2.86;100.00;101439.53;4989036;28;20202;-69
2023/03/05 07:43:14;;;;;;;8.63;3.30;;;;;;;2.96;100.00;101435.09;4985524;28;20215;-70
2023/03/05 07:45:41;;;;;;;9.30;3.17;;;;;;;3.08;100.00;101440.84;4989810;28;20195;-69
2023/03/05 07:48:11;;;;;;;6.73;3.57;;;;;;;3.13;100.00;101434.41;4986076;28;20196;-71
2023/03/05 07:50:36;;;;;;;10.03;3.23;;;;;;;3.26;100.00;101431.81;4988156;28;20761;-70
2023/03/05 07:53:02;;;;;;;9.23;3.43;;;;;;;3.28;100.00;101422.66;4987620;28;20319;-67
2023/03/05 07:55:27;;;;;;;6.70;3.30;;;;;;;3.40;100.00;101420.81;4988106;28;20215;-70
2023/03/05 07:57:53;;;;;;;8.83;3.40;;;;;;;3.57;100.00;101415.06;4985300;28;20276;-70
2023/03/05 08:00:18;;;;;;;7.70;3.20;;;;;;;4.01;100.00;101412.44;4985715;28;20188;-69
2023/03/05 08:02:44;;;;;;;7.70;3.10;;;;;;;4.20;100.00;101417.69;4982997;28;20208;-69
2023/03/05 08:05:10;;;;;;;6.37;3.50;;;;;;;4.22;100.00;101411.91;4985713;28;20203;-69
2023/03/05 08:07:36;;;;;;;8.30;3.50;;;;;;;4.14;100.00;101414.84;4984856;28;20196;-70
2023/03/05 08:10:02;;;;;;;6.67;3.03;;;;;;;4.09;100.00;101417.13;4990628;28;20219;-69
2023/03/05 08:12:28;;;;;;;6.47;3.03;;;;;;;4.01;100.00;101414.97;4984282;28;20666;-70
2023/03/05 08:14:53;;;;;;;8.47;3.60;;;;;;;3.96;100.00;101411.31;4985864;28;20206;-70
2023/03/05 08:17:19;;;;;;;6.30;3.43;;;;;;;3.98;100.00;101413.13;4983863;28;20196;-69
2023/03/05 08:19:44;;;;;;;10.70;3.47;;;;;;;4.04;100.00;101413.47;4989084;28;20196;-69
2023/03/05 08:22:10;;;;;;;10.13;4.27;;;;;;;4.24;100.00;101405.25;4988289;28;20196;-70
2023/03/05 08:24:36;;;;;;;8.07;4.63;;;;;;;4.12;100.00;101402.09;4985857;28;20303;-70
2023/03/05 08:27:01;;;;;;;6.87;4.10;;;;;;;4.36;100.00;101393.25;4986482;28;20282;-69
2023/03/05 08:29:27;;;;;;;10.70;5.13;;;;;;;4.56;100.00;101389.22;4983080;28;20239;-69
2023/03/05 08:31:52;;;;;;;11.23;5.07;;;;;;;4.69;100.00;101389.06;4987949;28;20214;-69
2023/03/05 08:34:19;;;;;;;7.53;4.67;;;;;;;4.73;100.00;101383.31;4983811;28;20215;-69
2023/03/05 08:36:45;;;;;;;8.57;4.97;;;;;;;4.84;100.00;101385.63;4987890;28;20191;-69
2023/03/05 08:39:11;;;;;;;8.93;5.00;;;;;;;4.92;100.00;101370.81;4982111;28;20295;-70
2023/03/05 08:41:36;;;;;;;10.13;4.73;;;;;;;5.02;100.00;101375.53;4985639;28;20279;-70
2023/03/05 08:44:02;;;;;;;8.50;3.83;;;;;;;4.96;100.00;101362.53;4984494;28;20219;-71
2023/03/05 08:46:28;;;;;;;11.23;4.27;;;;;;;5.32;100.00;101354.19;4987062;28;20188;-68
2023/03/05 08:48:53;;;;;;;4.80;3.50;;;;;;;5.56;100.00;101343.53;4984282;28;20199;-70
2023/03/05 08:51:24;;;;;;;7.83;3.47;;;;;;;6.16;100.00;101322.59;4987406;28;20220;-70
2023/03/05 08:53:51;;;;;;;6.40;3.40;;;;;;;5.97;100.00;101307.34;4984484;28;20719;-69
2023/03/05 08:56:16;;;;;;;8.23;3.73;;;;;;;5.78;100.00;101304.75;4984568;28;20658;-71
2023/03/05 08:58:42;;;;;;;6.70;3.90;;;;;;;6.11;100.00;101289.38;4984475;28;20349;-67
2023/03/05 09:01:09;;;;;;;7.83;3.60;;;;;;;6.75;100.00;101245.50;4982376;28;20207;-68
2023/03/05 09:03:34;;;;;;;8.53;4.07;;;;;;;6.81;100.00;101199.09;4982145;28;20218;-69
2023/03/05 09:06:01;;;;;;;6.50;3.63;;;;;;;7.28;100.00;101195.00;4981452;28;20200;-70
2023/03/05 09:08:28;;;;;;;6.20;3.23;;;;;;;7.56;100.00;101130.69;4987183;28;20200;-69
2023/03/05 09:10:54;;;;;;;6.17;3.70;;;;;;;7.36;100.00;101114.66;4984653;28;20215;-68
2023/03/05 09:13:19;;;;;;;9.20;3.50;;;;;;;7.18;100.00;101131.81;4984859;28;20216;-70
2023/03/05 09:15:45;;;;;;;7.10;4.03;;;;;;;6.98;100.00;101142.06;4987137;28;20203;-69
2023/03/05 09:18:10;;;;;;;5.67;3.20;;;;;;;6.73;100.00;101135.16;4984129;28;20561;-69
2023/03/05 09:20:36;;;;;;;7.17;3.20;;;;;;;6.76;100.00;101147.13;4984991;28;20316;-68
2023/03/05 09:23:02;;;;;;;7.30;2.70;;;;;;;6.83;100.00;101157.63;4985619;28;20211;-67
2023/03/05 09:25:28;;;;;;;4.17;2.70;;;;;;;6.88;100.00;101143.41;4984800;28;20654;-69
2023/03/05 09:27:53;;;;;;;8.93;2.50;;;;;;;6.68;100.00;101146.81;4988293;28;20191;-68
2023/03/05 09:30:19;;;;;;;9.50;2.30;;;;;;;6.75;100.00;101127.59;4984579;28;20219;-68
2023/03/05 09:32:45;;;;;;;3.40;1.97;;;;;;;6.53;100.00;101104.66;4987766;28;20219;-69
2023/03/05 09:35:11;;;;;;;8.27;2.10;;;;;;;7.06;100.00;101092.31;4983323;28;20226;-69
2023/03/05 09:37:36;;;;;;;6.10;2.10;;;;;;;7.29;100.00;101018.50;4985960;28;20265;-70
2023/03/05 09:40:03;;;;;;;6.50;2.00;;;;;;;7.59;100.00;100962.59;4983107;28;20196;-69
2023/03/05 09:43:03;;;;;;;6.83;2.17;;;;;;;7.20;100.00;100986.75;4983853;28;20275;-69
2023/03/05 09:45:39;;;;;;;7.53;2.13;;;;;;;7.13;100.00;100972.94;4991611;28;20262;-69
2023/03/05 09:48:34;;;;;;;6.80;1.80;;;;;;;7.74;100.00;100937.66;4985696;28;20681;-69
2023/03/05 09:51:02;;;;;;;7.43;2.30;;;;;;;9.35;100.00;100755.03;4978356;28;20302;-68
2023/03/05 09:53:48;;;;;;;6.07;2.20;;;;;;;11.78;86.26;100544.03;4983431;28;20781;-69
2023/03/05 09:56:25;;;;;;;6.07;2.77;;;;;;;13.01;62.63;100237.34;4986300;28;20235;-66
2023/03/05 09:58:56;;;;;;;7.63;2.40;;;;;;;9.79;83.12;100431.25;4980960;28;20552;-66
2023/03/05 10:01:27;;;;;;;5.93;2.20;;;;;;;9.53;92.58;100573.97;4983876;28;20188;-70
2023/03/05 10:04:08;;;;;;;3.87;2.40;;;;;;;8.31;100.00;100695.47;4987838;28;20220;-69
2023/03/05 10:06:40;;;;;;;8.97;2.57;;;;;;;8.01;100.00;100758.34;4984545;28;20203;-69
2023/03/05 10:09:08;;;;;;;5.43;2.70;;;;;;;7.47;100.00;100873.91;4984345;28;20329;-69
2023/03/05 10:11:57;;;;;;;7.67;2.40;;;;;;;7.18;100.00;100933.22;4984237;28;20199;-69
2023/03/05 10:14:32;;;;;;;7.17;3.17;;;;;;;6.95;100.00;100972.28;4983365;28;20231;-69
2023/03/05 10:17:35;;;;;;;5.03;2.23;;;;;;;6.64;100.00;101005.03;4981094;28;20222;-69
2023/03/05 10:20:21;;;;;;;5.13;2.13;;;;;;;6.26;100.00;101063.75;4981312;28;20199;-68
2023/03/05 10:23:06;;;;;;;4.57;1.60;;;;;;;5.91;100.00;101139.38;4984573;28;20663;-69
2023/03/05 10:25:41;;;;;;;4.17;1.57;;;;;;;5.82;100.00;101155.09;4951760;28;20221;-69
2023/03/05 10:28:18;;;;;;;4.80;1.63;;;;;;;5.60;100.00;101179.44;4986316;28;20191;-70
2023/03/05 10:30:53;;;;;;;6.17;2.50;;;;;;;5.47;100.00;101249.13;4979383;28;20740;-69
2023/03/05 10:33:42;;;;;;;7.00;1.87;;;;;;;5.21;100.00;101317.25;4979325;28;20213;-69
2023/03/05 10:36:10;;;;;;;7.30;1.70;;;;;;;4.84;100.00;101383.06;4983018;28;20291;-67
2023/03/05 10:39:09;;;;;;;4.43;1.67;;;;;;;4.69;100.00;101420.34;4985507;28;20270;-68
2023/03/05 10:42:09;;;;;;;5.30;1.90;;;;;;;4.63;100.00;101485.97;4984423;28;20279;-69
2023/03/05 10:44:51;;;;;;;5.57;2.10;;;;;;;4.39;100.00;101529.41;4983779;28;20216;-68
2023/03/05 10:47:24;;;;;;;7.90;2.33;;;;;;;4.27;100.00;101486.53;4987291;28;20196;-68
2023/03/05 10:49:52;;;;;;;5.73;2.00;;;;;;;4.21;100.00;101391.56;4981897;28;20223;-67
2023/03/05 10:52:29;;;;;;;4.20;2.10;;;;;;;4.08;100.00;101349.50;4984167;28;20207;-68
2023/03/05 10:54:55;;;;;;;4.83;2.07;;;;;;;4.03;100.00;101337.38;4984641;28;20230;-69
2023/03/05 10:57:24;;;;;;;11.33;2.57;;;;;;;3.84;100.00;101338.06;4984704;28;20273;-68
2023/03/05 10:59:51;;;;;;;4.83;2.47;;;;;;;3.94;100.00;101326.75;4982622;28;20204;-68
2023/03/05 11:02:19;;;;;;;4.93;2.40;;;;;;;4.26;100.00;101321.72;4984749;28;20199;-69
2023/03/05 11:04:46;;;;;;;5.03;2.20;;;;;;;5.09;100.00;101307.41;4983270;28;20222;-68
2023/03/05 11:07:14;;;;;;;7.77;2.40;;;;;;;4.78;100.00;101308.38;4985538;28;20567;-69
2023/03/05 11:10:03;;;;;;;5.73;2.20;;;;;;;4.58;100.00;101307.38;4989356;28;20270;-69
2023/03/05 11:12:31;;;;;;;4.47;2.77;;;;;;;4.46;100.00;101301.66;4988034;28;20202;-69
2023/03/05 11:15:08;;;;;;;4.43;2.23;;;;;;;4.60;100.00;101303.22;4988728;28;20211;-68
2023/03/05 11:17:37;;;;;;;6.50;2.20;;;;;;;4.65;100.00;101303.47;4986755;28;20666;-69
2023/03/05 11:20:33;;;;;;;4.20;2.40;;;;;;;5.02;100.00;101299.41;4988365;28;20788;-70
2023/03/05 11:23:22;;;;;;;4.03;2.03;;;;;;;6.68;100.00;101276.59;4984431;28;20224;-69
2023/03/05 11:26:17;;;;;;;3.67;1.90;;;;;;;15.56;96.55;100646.41;4986246;28;20235;-67
2023/03/05 11:29:03;;;;;;;1.80;1.40;;;;;;;19.50;46.50;99921.31;4985559;28;20705;-68